sensor_id;sensor_type;location;lat;lon;timestamp;P1;durP1;ratioP1;P2;durP2;ratioP2
39078;SDS011;24829;49.208;12.080;2024-03-22T00:00:41;37.75;;;23.75;;
39078;SDS011;24829;49.208;12.080;2024-03-22T00:03:06;35.53;;;23.70;;
39078;SDS011;24829;49.208;12.080;2024-03-22T00:05:32;36.53;;;24.27;;
39078;SDS011;24829;49.208;12.080;2024-03-22T00:07:58;37.78;;;22.52;;
39078;SDS011;24829;49.208;12.080;2024-03-22T00:10:23;38.22;;;23.75;;
39078;SDS011;24829;49.208;12.080;2024-03-22T00:12:49;38.38;;;25.00;;
39078;SDS011;24829;49.208;12.080;2024-03-22T00:15:15;35.45;;;23.88;;
39078;SDS011;24829;49.208;12.080;2024-03-22T00:17:42;45.33;;;27.15;;
39078;SDS011;24829;49.208;12.080;2024-03-22T00:20:09;41.35;;;25.55;;
39078;SDS011;24829;49.208;12.080;2024-03-22T00:22:35;39.30;;;24.92;;
39078;SDS011;24829;49.208;12.080;2024-03-22T00:25:01;41.92;;;24.77;;
39078;SDS011;24829;49.208;12.080;2024-03-22T00:27:26;36.95;;;24.15;;
39078;SDS011;24829;49.208;12.080;2024-03-22T00:29:52;40.13;;;25.30;;
39078;SDS011;24829;49.208;12.080;2024-03-22T00:32:18;38.72;;;25.08;;
39078;SDS011;24829;49.208;12.080;2024-03-22T00:34:43;35.58;;;23.83;;
39078;SDS011;24829;49.208;12.080;2024-03-22T00:37:10;34.28;;;23.08;;
39078;SDS011;24829;49.208;12.080;2024-03-22T00:39:35;35.25;;;23.80;;
39078;SDS011;24829;49.208;12.080;2024-03-22T00:42:01;33.33;;;21.20;;
39078;SDS011;24829;49.208;12.080;2024-03-22T00:44:27;31.48;;;21.55;;
39078;SDS011;24829;49.208;12.080;2024-03-22T00:46:52;34.20;;;22.48;;
39078;SDS011;24829;49.208;12.080;2024-03-22T00:49:18;36.70;;;24.00;;
39078;SDS011;24829;49.208;12.080;2024-03-22T00:51:43;34.95;;;23.42;;
39078;SDS011;24829;49.208;12.080;2024-03-22T00:54:10;28.30;;;20.75;;
39078;SDS011;24829;49.208;12.080;2024-03-22T00:56:35;33.53;;;20.52;;
39078;SDS011;24829;49.208;12.080;2024-03-22T00:59:01;34.58;;;23.13;;
39078;SDS011;24829;49.208;12.080;2024-03-22T01:01:26;23.27;;;17.30;;
39078;SDS011;24829;49.208;12.080;2024-03-22T01:03:52;18.17;;;12.50;;
39078;SDS011;24829;49.208;12.080;2024-03-22T01:06:18;12.98;;;11.02;;
39078;SDS011;24829;49.208;12.080;2024-03-22T01:08:48;15.65;;;11.68;;
39078;SDS011;24829;49.208;12.080;2024-03-22T01:11:14;21.05;;;13.05;;
39078;SDS011;24829;49.208;12.080;2024-03-22T01:13:40;19.30;;;12.30;;
39078;SDS011;24829;49.208;12.080;2024-03-22T01:16:05;17.52;;;12.80;;
39078;SDS011;24829;49.208;12.080;2024-03-22T01:18:34;20.25;;;15.63;;
39078;SDS011;24829;49.208;12.080;2024-03-22T01:21:00;16.73;;;13.48;;
39078;SDS011;24829;49.208;12.080;2024-03-22T01:23:26;15.20;;;10.75;;
39078;SDS011;24829;49.208;12.080;2024-03-22T01:25:51;12.63;;;10.05;;
39078;SDS011;24829;49.208;12.080;2024-03-22T01:28:17;10.95;;;9.65;;
39078;SDS011;24829;49.208;12.080;2024-03-22T01:30:43;11.65;;;10.02;;
39078;SDS011;24829;49.208;12.080;2024-03-22T01:33:09;13.43;;;11.18;;
39078;SDS011;24829;49.208;12.080;2024-03-22T01:35:34;27.52;;;10.90;;
39078;SDS011;24829;49.208;12.080;2024-03-22T01:38:00;13.02;;;10.55;;
39078;SDS011;24829;49.208;12.080;2024-03-22T01:40:25;13.48;;;10.18;;
39078;SDS011;24829;49.208;12.080;2024-03-22T01:42:57;13.20;;;11.55;;
39078;SDS011;24829;49.208;12.080;2024-03-22T01:45:24;12.75;;;10.40;;
39078;SDS011;24829;49.208;12.080;2024-03-22T01:47:52;23.10;;;11.48;;
39078;SDS011;24829;49.208;12.080;2024-03-22T01:50:23;12.27;;;10.85;;
39078;SDS011;24829;49.208;12.080;2024-03-22T01:52:48;49.85;;;12.98;;
39078;SDS011;24829;49.208;12.080;2024-03-22T01:55:15;42.33;;;11.75;;
39078;SDS011;24829;49.208;12.080;2024-03-22T01:57:41;117.60;;;13.95;;
39078;SDS011;24829;49.208;12.080;2024-03-22T02:00:07;152.85;;;14.55;;
39078;SDS011;24829;49.208;12.080;2024-03-22T02:02:33;153.80;;;14.43;;
39078;SDS011;24829;49.208;12.080;2024-03-22T02:04:59;61.33;;;12.40;;
39078;SDS011;24829;49.208;12.080;2024-03-22T02:07:36;156.70;;;16.60;;
39078;SDS011;24829;49.208;12.080;2024-03-22T02:10:01;68.82;;;13.43;;
39078;SDS011;24829;49.208;12.080;2024-03-22T02:12:27;143.68;;;17.20;;
39078;SDS011;24829;49.208;12.080;2024-03-22T02:14:53;94.93;;;14.23;;
39078;SDS011;24829;49.208;12.080;2024-03-22T02:17:18;65.40;;;14.32;;
39078;SDS011;24829;49.208;12.080;2024-03-22T02:19:44;85.18;;;14.70;;
39078;SDS011;24829;49.208;12.080;2024-03-22T02:22:09;83.10;;;13.85;;
39078;SDS011;24829;49.208;12.080;2024-03-22T02:24:35;59.75;;;13.48;;
39078;SDS011;24829;49.208;12.080;2024-03-22T02:27:01;49.13;;;14.45;;
39078;SDS011;24829;49.208;12.080;2024-03-22T02:29:26;139.52;;;18.05;;
39078;SDS011;24829;49.208;12.080;2024-03-22T02:31:52;142.45;;;19.02;;
39078;SDS011;24829;49.208;12.080;2024-03-22T02:34:18;102.38;;;17.23;;
39078;SDS011;24829;49.208;12.080;2024-03-22T02:36:43;246.05;;;24.27;;
39078;SDS011;24829;49.208;12.080;2024-03-22T02:39:09;59.83;;;16.48;;
39078;SDS011;24829;49.208;12.080;2024-03-22T02:41:35;131.85;;;18.08;;
39078;SDS011;24829;49.208;12.080;2024-03-22T02:44:00;54.78;;;15.35;;
39078;SDS011;24829;49.208;12.080;2024-03-22T02:46:26;53.78;;;15.50;;
39078;SDS011;24829;49.208;12.080;2024-03-22T02:48:51;27.73;;;14.48;;
39078;SDS011;24829;49.208;12.080;2024-03-22T02:51:17;123.65;;;17.85;;
39078;SDS011;24829;49.208;12.080;2024-03-22T02:53:43;58.92;;;16.65;;
39078;SDS011;24829;49.208;12.080;2024-03-22T02:56:08;50.30;;;15.82;;
39078;SDS011;24829;49.208;12.080;2024-03-22T02:58:34;60.25;;;16.08;;
39078;SDS011;24829;49.208;12.080;2024-03-22T03:01:01;46.08;;;14.63;;
39078;SDS011;24829;49.208;12.080;2024-03-22T03:03:28;26.55;;;14.02;;
39078;SDS011;24829;49.208;12.080;2024-03-22T03:05:54;125.88;;;19.20;;
39078;SDS011;24829;49.208;12.080;2024-03-22T03:08:19;56.13;;;16.63;;
39078;SDS011;24829;49.208;12.080;2024-03-22T03:10:45;59.83;;;18.15;;
39078;SDS011;24829;49.208;12.080;2024-03-22T03:13:11;74.82;;;20.38;;
39078;SDS011;24829;49.208;12.080;2024-03-22T03:15:36;35.88;;;17.83;;
39078;SDS011;24829;49.208;12.080;2024-03-22T03:18:02;57.30;;;19.50;;
39078;SDS011;24829;49.208;12.080;2024-03-22T03:20:28;44.30;;;19.85;;
39078;SDS011;24829;49.208;12.080;2024-03-22T03:22:53;39.38;;;17.80;;
39078;SDS011;24829;49.208;12.080;2024-03-22T03:25:20;42.25;;;18.33;;
39078;SDS011;24829;49.208;12.080;2024-03-22T03:27:46;36.08;;;17.73;;
39078;SDS011;24829;49.208;12.080;2024-03-22T03:30:11;33.97;;;19.13;;
39078;SDS011;24829;49.208;12.080;2024-03-22T03:32:37;41.67;;;19.15;;
39078;SDS011;24829;49.208;12.080;2024-03-22T03:35:02;28.30;;;17.20;;
39078;SDS011;24829;49.208;12.080;2024-03-22T03:37:28;34.55;;;17.55;;
39078;SDS011;24829;49.208;12.080;2024-03-22T03:39:54;34.45;;;15.95;;
39078;SDS011;24829;49.208;12.080;2024-03-22T03:42:19;30.58;;;15.45;;
39078;SDS011;24829;49.208;12.080;2024-03-22T03:44:45;38.10;;;14.48;;
39078;SDS011;24829;49.208;12.080;2024-03-22T03:47:10;31.98;;;15.10;;
39078;SDS011;24829;49.208;12.080;2024-03-22T03:49:36;30.95;;;15.98;;
39078;SDS011;24829;49.208;12.080;2024-03-22T03:52:02;39.77;;;14.83;;
39078;SDS011;24829;49.208;12.080;2024-03-22T03:54:28;26.55;;;16.48;;
39078;SDS011;24829;49.208;12.080;2024-03-22T03:56:53;24.63;;;16.58;;
39078;SDS011;24829;49.208;12.080;2024-03-22T03:59:19;26.08;;;16.70;;
39078;SDS011;24829;49.208;12.080;2024-03-22T04:01:44;30.90;;;18.73;;
39078;SDS011;24829;49.208;12.080;2024-03-22T04:04:10;30.00;;;18.48;;
39078;SDS011;24829;49.208;12.080;2024-03-22T04:06:35;30.17;;;18.30;;
39078;SDS011;24829;49.208;12.080;2024-03-22T04:09:01;30.20;;;18.08;;
39078;SDS011;24829;49.208;12.080;2024-03-22T04:11:27;34.28;;;19.52;;
39078;SDS011;24829;49.208;12.080;2024-03-22T04:13:53;29.05;;;18.85;;
39078;SDS011;24829;49.208;12.080;2024-03-22T04:16:19;36.35;;;19.92;;
39078;SDS011;24829;49.208;12.080;2024-03-22T04:18:45;34.33;;;18.63;;
39078;SDS011;24829;49.208;12.080;2024-03-22T04:21:10;24.35;;;15.68;;
39078;SDS011;24829;49.208;12.080;2024-03-22T04:23:36;22.00;;;14.80;;
39078;SDS011;24829;49.208;12.080;2024-03-22T04:26:02;34.70;;;15.57;;
39078;SDS011;24829;49.208;12.080;2024-03-22T04:28:28;26.60;;;15.73;;
39078;SDS011;24829;49.208;12.080;2024-03-22T04:31:04;27.25;;;16.35;;
39078;SDS011;24829;49.208;12.080;2024-03-22T04:33:31;23.40;;;14.90;;
39078;SDS011;24829;49.208;12.080;2024-03-22T04:35:57;36.38;;;15.25;;
39078;SDS011;24829;49.208;12.080;2024-03-22T04:38:24;27.02;;;15.02;;
39078;SDS011;24829;49.208;12.080;2024-03-22T04:40:51;41.42;;;14.57;;
39078;SDS011;24829;49.208;12.080;2024-03-22T04:43:17;107.15;;;15.10;;
39078;SDS011;24829;49.208;12.080;2024-03-22T04:45:43;131.13;;;16.90;;
39078;SDS011;24829;49.208;12.080;2024-03-22T04:48:09;55.63;;;14.00;;
39078;SDS011;24829;49.208;12.080;2024-03-22T04:50:37;70.68;;;15.07;;
39078;SDS011;24829;49.208;12.080;2024-03-22T04:53:02;72.93;;;15.23;;
39078;SDS011;24829;49.208;12.080;2024-03-22T04:55:28;97.10;;;15.55;;
39078;SDS011;24829;49.208;12.080;2024-03-22T04:57:54;81.20;;;14.38;;
39078;SDS011;24829;49.208;12.080;2024-03-22T05:00:19;58.47;;;13.35;;
39078;SDS011;24829;49.208;12.080;2024-03-22T05:02:45;53.25;;;13.63;;
39078;SDS011;24829;49.208;12.080;2024-03-22T05:05:11;54.15;;;13.98;;
39078;SDS011;24829;49.208;12.080;2024-03-22T05:07:37;82.28;;;15.32;;
39078;SDS011;24829;49.208;12.080;2024-03-22T05:10:03;109.97;;;16.75;;
39078;SDS011;24829;49.208;12.080;2024-03-22T05:12:30;144.43;;;17.05;;
39078;SDS011;24829;49.208;12.080;2024-03-22T05:14:56;149.95;;;16.98;;
39078;SDS011;24829;49.208;12.080;2024-03-22T05:17:21;184.25;;;19.40;;
39078;SDS011;24829;49.208;12.080;2024-03-22T05:19:47;98.50;;;19.83;;
39078;SDS011;24829;49.208;12.080;2024-03-22T05:22:13;153.93;;;25.67;;
39078;SDS011;24829;49.208;12.080;2024-03-22T05:24:38;118.35;;;17.38;;
39078;SDS011;24829;49.208;12.080;2024-03-22T05:27:04;110.20;;;16.52;;
39078;SDS011;24829;49.208;12.080;2024-03-22T05:29:29;62.55;;;16.55;;
39078;SDS011;24829;49.208;12.080;2024-03-22T05:31:55;37.58;;;14.25;;
39078;SDS011;24829;49.208;12.080;2024-03-22T05:34:22;63.03;;;15.13;;
39078;SDS011;24829;49.208;12.080;2024-03-22T05:36:47;62.90;;;15.07;;
39078;SDS011;24829;49.208;12.080;2024-03-22T05:39:13;65.13;;;15.57;;
39078;SDS011;24829;49.208;12.080;2024-03-22T05:41:39;76.43;;;17.52;;
39078;SDS011;24829;49.208;12.080;2024-03-22T05:44:05;89.93;;;15.98;;
39078;SDS011;24829;49.208;12.080;2024-03-22T05:46:31;75.82;;;15.73;;
39078;SDS011;24829;49.208;12.080;2024-03-22T05:48:59;68.07;;;16.77;;
39078;SDS011;24829;49.208;12.080;2024-03-22T05:51:25;70.30;;;17.08;;
39078;SDS011;24829;49.208;12.080;2024-03-22T05:53:51;25.45;;;15.48;;
39078;SDS011;24829;49.208;12.080;2024-03-22T05:56:17;93.03;;;17.98;;
39078;SDS011;24829;49.208;12.080;2024-03-22T05:58:42;58.53;;;18.40;;
39078;SDS011;24829;49.208;12.080;2024-03-22T06:01:08;42.08;;;18.13;;
39078;SDS011;24829;49.208;12.080;2024-03-22T06:03:33;49.03;;;18.08;;
39078;SDS011;24829;49.208;12.080;2024-03-22T06:05:59;44.00;;;17.80;;
39078;SDS011;24829;49.208;12.080;2024-03-22T06:08:26;48.70;;;18.38;;
39078;SDS011;24829;49.208;12.080;2024-03-22T06:10:52;47.38;;;18.15;;
39078;SDS011;24829;49.208;12.080;2024-03-22T06:13:19;60.80;;;17.20;;
39078;SDS011;24829;49.208;12.080;2024-03-22T06:15:46;49.33;;;17.60;;
39078;SDS011;24829;49.208;12.080;2024-03-22T06:18:13;42.22;;;17.67;;
39078;SDS011;24829;49.208;12.080;2024-03-22T06:20:39;30.73;;;16.83;;
39078;SDS011;24829;49.208;12.080;2024-03-22T06:23:05;33.95;;;16.92;;
39078;SDS011;24829;49.208;12.080;2024-03-22T06:25:32;25.35;;;16.05;;
39078;SDS011;24829;49.208;12.080;2024-03-22T06:27:57;31.70;;;16.38;;
39078;SDS011;24829;49.208;12.080;2024-03-22T06:30:23;26.98;;;14.80;;
39078;SDS011;24829;49.208;12.080;2024-03-22T06:32:48;27.42;;;15.57;;
39078;SDS011;24829;49.208;12.080;2024-03-22T06:35:14;55.00;;;24.02;;
39078;SDS011;24829;49.208;12.080;2024-03-22T06:37:39;45.28;;;17.52;;
39078;SDS011;24829;49.208;12.080;2024-03-22T06:40:06;29.85;;;20.15;;
39078;SDS011;24829;49.208;12.080;2024-03-22T06:42:32;29.52;;;18.65;;
39078;SDS011;24829;49.208;12.080;2024-03-22T06:44:58;46.50;;;21.70;;
39078;SDS011;24829;49.208;12.080;2024-03-22T06:47:23;31.73;;;19.27;;
39078;SDS011;24829;49.208;12.080;2024-03-22T06:49:49;38.95;;;17.17;;
39078;SDS011;24829;49.208;12.080;2024-03-22T06:52:14;43.20;;;19.10;;
39078;SDS011;24829;49.208;12.080;2024-03-22T06:54:40;28.83;;;17.52;;
39078;SDS011;24829;49.208;12.080;2024-03-22T06:57:06;32.88;;;18.70;;
39078;SDS011;24829;49.208;12.080;2024-03-22T06:59:32;29.30;;;17.05;;
39078;SDS011;24829;49.208;12.080;2024-03-22T07:01:57;26.02;;;16.65;;
39078;SDS011;24829;49.208;12.080;2024-03-22T07:04:23;39.25;;;18.63;;
39078;SDS011;24829;49.208;12.080;2024-03-22T07:06:49;34.08;;;18.73;;
39078;SDS011;24829;49.208;12.080;2024-03-22T07:09:14;33.90;;;20.23;;
39078;SDS011;24829;49.208;12.080;2024-03-22T07:11:40;30.73;;;19.00;;
39078;SDS011;24829;49.208;12.080;2024-03-22T07:14:06;30.02;;;19.63;;
39078;SDS011;24829;49.208;12.080;2024-03-22T07:16:32;27.73;;;18.08;;
39078;SDS011;24829;49.208;12.080;2024-03-22T07:18:57;27.70;;;16.98;;
39078;SDS011;24829;49.208;12.080;2024-03-22T07:21:23;28.10;;;16.83;;
39078;SDS011;24829;49.208;12.080;2024-03-22T07:23:48;27.42;;;18.02;;
39078;SDS011;24829;49.208;12.080;2024-03-22T07:26:14;29.60;;;18.75;;
39078;SDS011;24829;49.208;12.080;2024-03-22T07:28:40;29.48;;;18.98;;
39078;SDS011;24829;49.208;12.080;2024-03-22T07:31:05;26.98;;;18.13;;
39078;SDS011;24829;49.208;12.080;2024-03-22T07:33:31;28.50;;;19.63;;
39078;SDS011;24829;49.208;12.080;2024-03-22T07:36:01;31.80;;;20.23;;
39078;SDS011;24829;49.208;12.080;2024-03-22T07:38:27;31.25;;;20.73;;
39078;SDS011;24829;49.208;12.080;2024-03-22T07:40:53;31.80;;;20.85;;
39078;SDS011;24829;49.208;12.080;2024-03-22T07:43:19;38.35;;;22.42;;
39078;SDS011;24829;49.208;12.080;2024-03-22T07:45:44;43.70;;;25.20;;
39078;SDS011;24829;49.208;12.080;2024-03-22T07:48:10;40.92;;;26.30;;
39078;SDS011;24829;49.208;12.080;2024-03-22T07:50:36;40.47;;;25.35;;
39078;SDS011;24829;49.208;12.080;2024-03-22T07:53:02;38.35;;;25.65;;
39078;SDS011;24829;49.208;12.080;2024-03-22T07:55:27;43.55;;;26.30;;
39078;SDS011;24829;49.208;12.080;2024-03-22T07:57:53;41.03;;;26.05;;
39078;SDS011;24829;49.208;12.080;2024-03-22T08:00:19;44.35;;;26.13;;
39078;SDS011;24829;49.208;12.080;2024-03-22T08:02:44;40.00;;;25.88;;
39078;SDS011;24829;49.208;12.080;2024-03-22T08:05:10;37.05;;;24.55;;
39078;SDS011;24829;49.208;12.080;2024-03-22T08:07:35;35.85;;;22.95;;
39078;SDS011;24829;49.208;12.080;2024-03-22T08:10:01;38.00;;;24.23;;
39078;SDS011;24829;49.208;12.080;2024-03-22T08:12:27;36.70;;;24.10;;
39078;SDS011;24829;49.208;12.080;2024-03-22T08:14:53;32.60;;;21.95;;
39078;SDS011;24829;49.208;12.080;2024-03-22T08:17:19;32.38;;;21.70;;
39078;SDS011;24829;49.208;12.080;2024-03-22T08:19:44;30.92;;;21.92;;
39078;SDS011;24829;49.208;12.080;2024-03-22T08:22:10;34.63;;;22.88;;
39078;SDS011;24829;49.208;12.080;2024-03-22T08:24:36;35.42;;;22.83;;
39078;SDS011;24829;49.208;12.080;2024-03-22T08:27:02;35.97;;;23.77;;
39078;SDS011;24829;49.208;12.080;2024-03-22T08:29:28;37.50;;;23.83;;
39078;SDS011;24829;49.208;12.080;2024-03-22T08:31:54;39.47;;;24.30;;
39078;SDS011;24829;49.208;12.080;2024-03-22T08:34:20;38.08;;;25.08;;
39078;SDS011;24829;49.208;12.080;2024-03-22T08:36:46;34.60;;;23.65;;
39078;SDS011;24829;49.208;12.080;2024-03-22T08:39:12;34.90;;;24.27;;
39078;SDS011;24829;49.208;12.080;2024-03-22T08:41:37;37.55;;;25.17;;
39078;SDS011;24829;49.208;12.080;2024-03-22T08:44:03;36.58;;;24.27;;
39078;SDS011;24829;49.208;12.080;2024-03-22T08:46:29;34.42;;;23.85;;
39078;SDS011;24829;49.208;12.080;2024-03-22T08:48:57;36.58;;;24.83;;
39078;SDS011;24829;49.208;12.080;2024-03-22T08:51:22;34.88;;;23.88;;
39078;SDS011;24829;49.208;12.080;2024-03-22T08:53:48;35.75;;;23.27;;
39078;SDS011;24829;49.208;12.080;2024-03-22T08:56:14;33.83;;;23.58;;
39078;SDS011;24829;49.208;12.080;2024-03-22T08:58:39;33.97;;;23.95;;
39078;SDS011;24829;49.208;12.080;2024-03-22T09:01:05;34.10;;;23.15;;
39078;SDS011;24829;49.208;12.080;2024-03-22T09:03:31;34.40;;;23.10;;
39078;SDS011;24829;49.208;12.080;2024-03-22T09:05:56;34.17;;;24.40;;
39078;SDS011;24829;49.208;12.080;2024-03-22T09:08:22;36.80;;;25.63;;
39078;SDS011;24829;49.208;12.080;2024-03-22T09:10:48;36.05;;;25.20;;
39078;SDS011;24829;49.208;12.080;2024-03-22T09:13:14;36.10;;;24.13;;
39078;SDS011;24829;49.208;12.080;2024-03-22T09:15:39;37.38;;;24.58;;
39078;SDS011;24829;49.208;12.080;2024-03-22T09:18:05;37.97;;;26.08;;
39078;SDS011;24829;49.208;12.080;2024-03-22T09:20:31;37.33;;;25.92;;
39078;SDS011;24829;49.208;12.080;2024-03-22T09:22:57;38.53;;;25.63;;
39078;SDS011;24829;49.208;12.080;2024-03-22T09:25:25;34.35;;;24.42;;
39078;SDS011;24829;49.208;12.080;2024-03-22T09:27:52;34.38;;;24.25;;
39078;SDS011;24829;49.208;12.080;2024-03-22T09:30:17;37.53;;;24.45;;
39078;SDS011;24829;49.208;12.080;2024-03-22T09:32:44;35.08;;;24.17;;
39078;SDS011;24829;49.208;12.080;2024-03-22T09:35:09;34.58;;;24.67;;
39078;SDS011;24829;49.208;12.080;2024-03-22T09:37:36;36.88;;;26.45;;
39078;SDS011;24829;49.208;12.080;2024-03-22T09:40:02;41.95;;;27.83;;
39078;SDS011;24829;49.208;12.080;2024-03-22T09:42:32;41.15;;;26.08;;
39078;SDS011;24829;49.208;12.080;2024-03-22T09:44:58;37.03;;;25.45;;
39078;SDS011;24829;49.208;12.080;2024-03-22T09:47:24;35.35;;;25.67;;
39078;SDS011;24829;49.208;12.080;2024-03-22T09:49:51;34.45;;;23.85;;
39078;SDS011;24829;49.208;12.080;2024-03-22T09:52:18;33.38;;;24.98;;
39078;SDS011;24829;49.208;12.080;2024-03-22T09:54:45;35.85;;;25.30;;
39078;SDS011;24829;49.208;12.080;2024-03-22T09:57:14;39.70;;;26.90;;
39078;SDS011;24829;49.208;12.080;2024-03-22T09:59:46;37.08;;;26.70;;
39078;SDS011;24829;49.208;12.080;2024-03-22T10:02:11;38.30;;;25.38;;
39078;SDS011;24829;49.208;12.080;2024-03-22T10:04:38;35.00;;;24.17;;
39078;SDS011;24829;49.208;12.080;2024-03-22T10:07:04;34.53;;;25.00;;
39078;SDS011;24829;49.208;12.080;2024-03-22T10:09:30;44.80;;;26.23;;
39078;SDS011;24829;49.208;12.080;2024-03-22T10:11:56;35.47;;;26.83;;
39078;SDS011;24829;49.208;12.080;2024-03-22T10:14:22;40.22;;;26.08;;
39078;SDS011;24829;49.208;12.080;2024-03-22T10:16:52;40.83;;;25.75;;
39078;SDS011;24829;49.208;12.080;2024-03-22T10:19:19;38.15;;;27.00;;
39078;SDS011;24829;49.208;12.080;2024-03-22T10:21:46;41.58;;;27.50;;
39078;SDS011;24829;49.208;12.080;2024-03-22T10:24:33;38.33;;;26.58;;
39078;SDS011;24829;49.208;12.080;2024-03-22T10:26:58;39.95;;;26.35;;
39078;SDS011;24829;49.208;12.080;2024-03-22T10:29:24;42.60;;;27.92;;
39078;SDS011;24829;49.208;12.080;2024-03-22T10:31:53;40.30;;;28.13;;
39078;SDS011;24829;49.208;12.080;2024-03-22T10:34:20;43.45;;;27.75;;
39078;SDS011;24829;49.208;12.080;2024-03-22T10:36:47;50.75;;;28.10;;
39078;SDS011;24829;49.208;12.080;2024-03-22T10:39:13;46.42;;;29.77;;
39078;SDS011;24829;49.208;12.080;2024-03-22T10:41:43;44.25;;;28.52;;
39078;SDS011;24829;49.208;12.080;2024-03-22T10:44:10;49.42;;;30.77;;
39078;SDS011;24829;49.208;12.080;2024-03-22T10:46:35;41.20;;;28.75;;
39078;SDS011;24829;49.208;12.080;2024-03-22T10:49:02;41.05;;;28.20;;
39078;SDS011;24829;49.208;12.080;2024-03-22T10:51:30;44.55;;;30.35;;
39078;SDS011;24829;49.208;12.080;2024-03-22T10:53:58;44.33;;;29.75;;
39078;SDS011;24829;49.208;12.080;2024-03-22T10:56:26;41.28;;;28.58;;
39078;SDS011;24829;49.208;12.080;2024-03-22T10:58:52;40.25;;;28.40;;
39078;SDS011;24829;49.208;12.080;2024-03-22T11:01:25;41.63;;;31.65;;
39078;SDS011;24829;49.208;12.080;2024-03-22T11:03:51;43.40;;;32.05;;
39078;SDS011;24829;49.208;12.080;2024-03-22T11:06:28;50.75;;;31.83;;
39078;SDS011;24829;49.208;12.080;2024-03-22T11:08:58;51.10;;;32.65;;
39078;SDS011;24829;49.208;12.080;2024-03-22T11:11:27;44.85;;;31.23;;
39078;SDS011;24829;49.208;12.080;2024-03-22T11:13:54;46.88;;;33.38;;
39078;SDS011;24829;49.208;12.080;2024-03-22T11:16:21;50.72;;;32.72;;
39078;SDS011;24829;49.208;12.080;2024-03-22T11:18:47;52.42;;;32.40;;
39078;SDS011;24829;49.208;12.080;2024-03-22T11:21:13;49.63;;;31.48;;
39078;SDS011;24829;49.208;12.080;2024-03-22T11:23:40;52.78;;;33.15;;
39078;SDS011;24829;49.208;12.080;2024-03-22T11:26:05;48.75;;;32.70;;
39078;SDS011;24829;49.208;12.080;2024-03-22T11:28:35;43.65;;;28.40;;
39078;SDS011;24829;49.208;12.080;2024-03-22T11:31:01;41.15;;;29.00;;
39078;SDS011;24829;49.208;12.080;2024-03-22T11:33:27;41.95;;;31.45;;
39078;SDS011;24829;49.208;12.080;2024-03-22T11:35:53;44.40;;;31.80;;
39078;SDS011;24829;49.208;12.080;2024-03-22T11:38:19;39.75;;;28.63;;
39078;SDS011;24829;49.208;12.080;2024-03-22T11:40:44;49.05;;;29.73;;
39078;SDS011;24829;49.208;12.080;2024-03-22T11:43:11;35.47;;;26.52;;
39078;SDS011;24829;49.208;12.080;2024-03-22T11:45:40;41.40;;;27.77;;
39078;SDS011;24829;49.208;12.080;2024-03-22T11:48:06;40.17;;;28.00;;
39078;SDS011;24829;49.208;12.080;2024-03-22T11:50:32;36.45;;;26.80;;
39078;SDS011;24829;49.208;12.080;2024-03-22T11:52:58;34.38;;;25.52;;
39078;SDS011;24829;49.208;12.080;2024-03-22T11:55:26;38.08;;;27.13;;
39078;SDS011;24829;49.208;12.080;2024-03-22T11:57:53;37.53;;;26.63;;
39078;SDS011;24829;49.208;12.080;2024-03-22T12:00:18;46.00;;;28.33;;
39078;SDS011;24829;49.208;12.080;2024-03-22T12:02:44;37.10;;;27.90;;
39078;SDS011;24829;49.208;12.080;2024-03-22T12:05:10;39.90;;;29.65;;
39078;SDS011;24829;49.208;12.080;2024-03-22T12:07:36;37.92;;;27.90;;
39078;SDS011;24829;49.208;12.080;2024-03-22T12:10:02;40.05;;;27.80;;
39078;SDS011;24829;49.208;12.080;2024-03-22T12:12:29;41.28;;;28.38;;
39078;SDS011;24829;49.208;12.080;2024-03-22T12:14:55;35.60;;;26.15;;
39078;SDS011;24829;49.208;12.080;2024-03-22T12:17:21;35.90;;;25.85;;
39078;SDS011;24829;49.208;12.080;2024-03-22T12:19:46;39.30;;;26.35;;
39078;SDS011;24829;49.208;12.080;2024-03-22T12:22:12;32.00;;;24.10;;
39078;SDS011;24829;49.208;12.080;2024-03-22T12:24:38;35.38;;;24.00;;
39078;SDS011;24829;49.208;12.080;2024-03-22T12:27:03;33.65;;;25.80;;
39078;SDS011;24829;49.208;12.080;2024-03-22T12:29:32;36.25;;;25.77;;
39078;SDS011;24829;49.208;12.080;2024-03-22T12:31:58;36.85;;;26.95;;
39078;SDS011;24829;49.208;12.080;2024-03-22T12:34:26;34.35;;;25.73;;
39078;SDS011;24829;49.208;12.080;2024-03-22T12:36:52;37.13;;;27.25;;
39078;SDS011;24829;49.208;12.080;2024-03-22T12:39:18;32.95;;;23.42;;
39078;SDS011;24829;49.208;12.080;2024-03-22T12:41:43;34.33;;;23.98;;
39078;SDS011;24829;49.208;12.080;2024-03-22T12:44:09;35.00;;;23.23;;
39078;SDS011;24829;49.208;12.080;2024-03-22T12:46:35;34.38;;;24.42;;
39078;SDS011;24829;49.208;12.080;2024-03-22T12:49:01;35.03;;;24.05;;
39078;SDS011;24829;49.208;12.080;2024-03-22T12:51:26;34.67;;;24.85;;
39078;SDS011;24829;49.208;12.080;2024-03-22T12:53:52;33.70;;;24.90;;
39078;SDS011;24829;49.208;12.080;2024-03-22T12:56:17;33.95;;;25.10;;
39078;SDS011;24829;49.208;12.080;2024-03-22T12:58:43;41.25;;;27.00;;
39078;SDS011;24829;49.208;12.080;2024-03-22T13:01:09;34.92;;;26.20;;
39078;SDS011;24829;49.208;12.080;2024-03-22T13:03:36;34.45;;;24.17;;
39078;SDS011;24829;49.208;12.080;2024-03-22T13:06:02;29.83;;;21.30;;
39078;SDS011;24829;49.208;12.080;2024-03-22T13:08:28;34.55;;;24.77;;
39078;SDS011;24829;49.208;12.080;2024-03-22T13:10:54;33.53;;;25.13;;
39078;SDS011;24829;49.208;12.080;2024-03-22T13:13:19;39.17;;;26.23;;
39078;SDS011;24829;49.208;12.080;2024-03-22T13:15:45;33.47;;;24.67;;
39078;SDS011;24829;49.208;12.080;2024-03-22T13:18:12;31.90;;;23.65;;
39078;SDS011;24829;49.208;12.080;2024-03-22T13:20:38;28.85;;;22.55;;
39078;SDS011;24829;49.208;12.080;2024-03-22T13:23:04;34.00;;;22.88;;
39078;SDS011;24829;49.208;12.080;2024-03-22T13:25:30;29.45;;;22.48;;
39078;SDS011;24829;49.208;12.080;2024-03-22T13:27:56;29.67;;;22.85;;
39078;SDS011;24829;49.208;12.080;2024-03-22T13:30:22;31.15;;;22.58;;
39078;SDS011;24829;49.208;12.080;2024-03-22T13:32:47;30.13;;;21.35;;
39078;SDS011;24829;49.208;12.080;2024-03-22T13:35:13;29.90;;;21.10;;
39078;SDS011;24829;49.208;12.080;2024-03-22T13:37:40;27.30;;;20.88;;
39078;SDS011;24829;49.208;12.080;2024-03-22T13:40:06;29.92;;;22.48;;
39078;SDS011;24829;49.208;12.080;2024-03-22T13:42:32;34.75;;;23.60;;
39078;SDS011;24829;49.208;12.080;2024-03-22T13:44:58;32.85;;;23.55;;
39078;SDS011;24829;49.208;12.080;2024-03-22T13:47:24;30.52;;;21.77;;
39078;SDS011;24829;49.208;12.080;2024-03-22T13:49:52;38.40;;;23.80;;
39078;SDS011;24829;49.208;12.080;2024-03-22T13:52:18;30.90;;;21.88;;
39078;SDS011;24829;49.208;12.080;2024-03-22T13:54:45;26.75;;;21.48;;
39078;SDS011;24829;49.208;12.080;2024-03-22T13:57:11;27.48;;;20.75;;
39078;SDS011;24829;49.208;12.080;2024-03-22T13:59:37;27.70;;;20.42;;
39078;SDS011;24829;49.208;12.080;2024-03-22T14:02:05;32.20;;;21.92;;